sensor_id;sensor_type;location;lat;lon;timestamp;pressure;altitude;pressure_sealevel;temperature;humidity
76128;BME280;64873;50.102;14.434;2023-12-20T00:01:16;98986.50;;;6.52;64.98
76128;BME280;64873;50.102;14.434;2023-12-20T00:03:41;98951.72;;;6.34;65.30
76128;BME280;64873;50.102;14.434;2023-12-20T00:06:07;98961.94;;;6.37;65.28
76128;BME280;64873;50.102;14.434;2023-12-20T00:08:33;98961.66;;;6.25;66.57
76128;BME280;64873;50.102;14.434;2023-12-20T00:10:58;98961.09;;;6.30;66.25
76128;BME280;64873;50.102;14.434;2023-12-20T00:13:24;98951.63;;;6.21;67.20
76128;BME280;64873;50.102;14.434;2023-12-20T00:15:49;98935.50;;;6.15;68.04
76128;BME280;64873;50.102;14.434;2023-12-20T00:18:14;98972.88;;;6.21;67.88
76128;BME280;64873;50.102;14.434;2023-12-20T00:20:40;98970.66;;;6.24;67.47
76128;BME280;64873;50.102;14.434;2023-12-20T00:23:05;98949.59;;;6.16;68.70
76128;BME280;64873;50.102;14.434;2023-12-20T00:25:31;98954.69;;;6.18;68.62
76128;BME280;64873;50.102;14.434;2023-12-20T00:27:56;98945.53;;;6.27;68.67
76128;BME280;64873;50.102;14.434;2023-12-20T00:30:21;98936.91;;;6.11;70.07
76128;BME280;64873;50.102;14.434;2023-12-20T00:32:47;98939.34;;;6.06;70.18
76128;BME280;64873;50.102;14.434;2023-12-20T00:35:13;98951.97;;;6.04;71.13
76128;BME280;64873;50.102;14.434;2023-12-20T00:37:39;98955.63;;;6.03;71.50
76128;BME280;64873;50.102;14.434;2023-12-20T00:40:07;98957.22;;;5.98;72.10
76128;BME280;64873;50.102;14.434;2023-12-20T00:42:33;98946.88;;;6.09;71.64
76128;BME280;64873;50.102;14.434;2023-12-20T00:44:59;98931.53;;;5.98;71.75
76128;BME280;64873;50.102;14.434;2023-12-20T00:47:24;98929.88;;;5.97;72.28
76128;BME280;64873;50.102;14.434;2023-12-20T00:49:50;98929.88;;;5.97;72.11
76128;BME280;64873;50.102;14.434;2023-12-20T00:52:15;98936.31;;;5.81;73.60
76128;BME280;64873;50.102;14.434;2023-12-20T00:54:42;98913.50;;;5.87;73.30
76128;BME280;64873;50.102;14.434;2023-12-20T00:57:08;98922.88;;;5.89;73.35
76128;BME280;64873;50.102;14.434;2023-12-20T00:59:33;98913.88;;;5.84;74.42
76128;BME280;64873;50.102;14.434;2023-12-20T01:01:58;98910.59;;;5.82;74.52
76128;BME280;64873;50.102;14.434;2023-12-20T01:04:24;98888.59;;;5.81;74.91
76128;BME280;64873;50.102;14.434;2023-12-20T01:06:49;98901.16;;;5.73;75.67
76128;BME280;64873;50.102;14.434;2023-12-20T01:09:15;98900.97;;;5.74;75.28
76128;BME280;64873;50.102;14.434;2023-12-20T01:11:40;98908.09;;;5.74;75.73
76128;BME280;64873;50.102;14.434;2023-12-20T01:14:05;98911.47;;;5.89;76.14
76128;BME280;64873;50.102;14.434;2023-12-20T01:16:31;98910.97;;;5.79;76.58
76128;BME280;64873;50.102;14.434;2023-12-20T01:18:56;98910.91;;;5.66;76.81
76128;BME280;64873;50.102;14.434;2023-12-20T01:21:22;98915.06;;;5.75;77.36
76128;BME280;64873;50.102;14.434;2023-12-20T01:23:47;98901.31;;;5.65;77.25
76128;BME280;64873;50.102;14.434;2023-12-20T01:26:14;98891.34;;;5.67;77.47
76128;BME280;64873;50.102;14.434;2023-12-20T01:28:40;98884.41;;;5.66;77.14
76128;BME280;64873;50.102;14.434;2023-12-20T01:31:05;98888.69;;;5.67;77.31
76128;BME280;64873;50.102;14.434;2023-12-20T01:33:31;98886.50;;;5.77;77.45
76128;BME280;64873;50.102;14.434;2023-12-20T01:35:56;98879.56;;;5.76;77.58
76128;BME280;64873;50.102;14.434;2023-12-20T01:38:22;98870.00;;;5.75;78.13
76128;BME280;64873;50.102;14.434;2023-12-20T01:40:47;98869.31;;;5.66;78.03
76128;BME280;64873;50.102;14.434;2023-12-20T01:43:13;98861.56;;;5.65;78.35
76128;BME280;64873;50.102;14.434;2023-12-20T01:45:38;98850.53;;;5.61;78.97
76128;BME280;64873;50.102;14.434;2023-12-20T01:48:05;98853.41;;;5.66;78.87
76128;BME280;64873;50.102;14.434;2023-12-20T01:50:31;98838.31;;;5.67;79.78
76128;BME280;64873;50.102;14.434;2023-12-20T01:52:59;98856.78;;;5.88;78.25
76128;BME280;64873;50.102;14.434;2023-12-20T01:55:27;98854.69;;;5.77;78.71
76128;BME280;64873;50.102;14.434;2023-12-20T01:57:55;98857.69;;;5.67;79.45
76128;BME280;64873;50.102;14.434;2023-12-20T02:00:23;98842.91;;;5.86;78.86
76128;BME280;64873;50.102;14.434;2023-12-20T02:02:53;98842.84;;;5.73;79.42
76128;BME280;64873;50.102;14.434;2023-12-20T02:05:19;98830.16;;;5.68;79.57
76128;BME280;64873;50.102;14.434;2023-12-20T02:07:44;98842.91;;;5.86;79.66
76128;BME280;64873;50.102;14.434;2023-12-20T02:10:10;98846.31;;;5.73;80.41
76128;BME280;64873;50.102;14.434;2023-12-20T02:12:35;98822.59;;;5.58;80.15
76128;BME280;64873;50.102;14.434;2023-12-20T02:15:01;98837.25;;;5.61;80.38
76128;BME280;64873;50.102;14.434;2023-12-20T02:17:27;98826.69;;;5.68;80.53
76128;BME280;64873;50.102;14.434;2023-12-20T02:19:53;98837.13;;;5.69;80.99
76128;BME280;64873;50.102;14.434;2023-12-20T02:22:18;98842.22;;;5.71;80.06
76128;BME280;64873;50.102;14.434;2023-12-20T02:24:44;98832.16;;;5.59;80.93
76128;BME280;64873;50.102;14.434;2023-12-20T02:27:09;98841.38;;;5.64;80.77
76128;BME280;64873;50.102;14.434;2023-12-20T02:29:35;98833.44;;;5.64;80.97
76128;BME280;64873;50.102;14.434;2023-12-20T02:32:01;98834.66;;;5.68;80.33
76128;BME280;64873;50.102;14.434;2023-12-20T02:34:27;98838.19;;;5.75;80.30
76128;BME280;64873;50.102;14.434;2023-12-20T02:36:52;98826.53;;;5.69;80.36
76128;BME280;64873;50.102;14.434;2023-12-20T02:39:19;98832.63;;;5.70;80.66
76128;BME280;64873;50.102;14.434;2023-12-20T02:41:44;98825.06;;;5.67;81.06
76128;BME280;64873;50.102;14.434;2023-12-20T02:44:16;98829.34;;;5.68;81.15
76128;BME280;64873;50.102;14.434;2023-12-20T02:46:43;98827.69;;;5.60;81.66
76128;BME280;64873;50.102;14.434;2023-12-20T02:49:09;98829.53;;;5.59;81.65
76128;BME280;64873;50.102;14.434;2023-12-20T02:51:34;98826.03;;;5.52;82.40
76128;BME280;64873;50.102;14.434;2023-12-20T02:54:00;98817.44;;;5.50;82.63
76128;BME280;64873;50.102;14.434;2023-12-20T02:56:25;98825.38;;;5.50;83.09
76128;BME280;64873;50.102;14.434;2023-12-20T02:58:50;98832.16;;;5.59;82.99
76128;BME280;64873;50.102;14.434;2023-12-20T03:01:16;98816.19;;;5.46;83.20
76128;BME280;64873;50.102;14.434;2023-12-20T03:03:41;98821.31;;;5.48;83.59
76128;BME280;64873;50.102;14.434;2023-12-20T03:06:07;98829.44;;;5.46;83.95
76128;BME280;64873;50.102;14.434;2023-12-20T03:08:32;98824.38;;;5.51;84.29
76128;BME280;64873;50.102;14.434;2023-12-20T03:10:59;98811.44;;;5.35;84.77
76128;BME280;64873;50.102;14.434;2023-12-20T03:13:24;98824.72;;;5.42;84.45
76128;BME280;64873;50.102;14.434;2023-12-20T03:15:50;98813.31;;;5.41;83.97
76128;BME280;64873;50.102;14.434;2023-12-20T03:18:15;98817.41;;;5.44;85.00
76128;BME280;64873;50.102;14.434;2023-12-20T03:20:41;98811.81;;;5.32;85.25
76128;BME280;64873;50.102;14.434;2023-12-20T03:23:06;98819.66;;;5.47;84.43
76128;BME280;64873;50.102;14.434;2023-12-20T03:25:32;98825.06;;;5.32;84.98
76128;BME280;64873;50.102;14.434;2023-12-20T03:27:57;98814.50;;;5.39;85.15
76128;BME280;64873;50.102;14.434;2023-12-20T03:30:23;98820.00;;;5.37;85.80
76128;BME280;64873;50.102;14.434;2023-12-20T03:32:48;98821.41;;;5.33;86.22
76128;BME280;64873;50.102;14.434;2023-12-20T03:35:14;98820.13;;;5.22;86.34
76128;BME280;64873;50.102;14.434;2023-12-20T03:37:39;98823.63;;;5.29;85.67
76128;BME280;64873;50.102;14.434;2023-12-20T03:40:05;98809.91;;;5.19;85.75
76128;BME280;64873;50.102;14.434;2023-12-20T03:42:31;98822.16;;;5.27;85.36
76128;BME280;64873;50.102;14.434;2023-12-20T03:44:56;98822.03;;;5.35;85.51
76128;BME280;64873;50.102;14.434;2023-12-20T03:47:21;98823.06;;;5.34;85.96
76128;BME280;64873;50.102;14.434;2023-12-20T03:49:47;98825.84;;;5.26;86.24
76128;BME280;64873;50.102;14.434;2023-12-20T03:52:12;98824.66;;;5.28;86.31
76128;BME280;64873;50.102;14.434;2023-12-20T03:54:38;98817.69;;;5.27;85.77
76128;BME280;64873;50.102;14.434;2023-12-20T03:57:04;98814.19;;;5.20;85.50
76128;BME280;64873;50.102;14.434;2023-12-20T03:59:30;98825.47;;;5.29;86.32
76128;BME280;64873;50.102;14.434;2023-12-20T04:01:59;98808.06;;;5.20;86.18
76128;BME280;64873;50.102;14.434;2023-12-20T04:04:25;98820.75;;;5.24;86.34
76128;BME280;64873;50.102;14.434;2023-12-20T04:06:50;98810.97;;;5.25;86.88
76128;BME280;64873;50.102;14.434;2023-12-20T04:09:15;98824.81;;;5.27;86.61
76128;BME280;64873;50.102;14.434;2023-12-20T04:11:41;98817.47;;;5.22;86.62
76128;BME280;64873;50.102;14.434;2023-12-20T04:14:06;98816.19;;;5.12;86.48
76128;BME280;64873;50.102;14.434;2023-12-20T04:16:32;98825.59;;;5.21;86.14
76128;BME280;64873;50.102;14.434;2023-12-20T04:18:58;98821.31;;;5.20;86.21
76128;BME280;64873;50.102;14.434;2023-12-20T04:21:23;98807.84;;;5.15;86.30
76128;BME280;64873;50.102;14.434;2023-12-20T04:23:48;98832.31;;;5.17;86.25
76128;BME280;64873;50.102;14.434;2023-12-20T04:26:14;98817.66;;;5.21;85.41
76128;BME280;64873;50.102;14.434;2023-12-20T04:28:39;98822.53;;;5.17;85.61
76128;BME280;64873;50.102;14.434;2023-12-20T04:31:05;98825.44;;;5.22;85.66
76128;BME280;64873;50.102;14.434;2023-12-20T04:33:30;98837.44;;;5.25;85.95
76128;BME280;64873;50.102;14.434;2023-12-20T04:35:55;98842.94;;;5.23;85.63
76128;BME280;64873;50.102;14.434;2023-12-20T04:38:22;98839.03;;;5.19;85.29
76128;BME280;64873;50.102;14.434;2023-12-20T04:40:48;98826.25;;;5.23;84.95
76128;BME280;64873;50.102;14.434;2023-12-20T04:43:13;98836.69;;;5.31;84.89
76128;BME280;64873;50.102;14.434;2023-12-20T04:45:38;98825.84;;;5.26;85.28
76128;BME280;64873;50.102;14.434;2023-12-20T04:48:04;98838.84;;;5.21;85.65
76128;BME280;64873;50.102;14.434;2023-12-20T04:50:30;98835.56;;;5.19;85.83
76128;BME280;64873;50.102;14.434;2023-12-20T04:52:55;98827.03;;;5.17;85.72
76128;BME280;64873;50.102;14.434;2023-12-20T04:55:21;98829.06;;;5.21;85.83
76128;BME280;64873;50.102;14.434;2023-12-20T04:57:46;98835.34;;;5.14;85.60
76128;BME280;64873;50.102;14.434;2023-12-20T05:00:12;98831.06;;;5.13;86.11
76128;BME280;64873;50.102;14.434;2023-12-20T05:02:37;98830.81;;;5.07;86.20
76128;BME280;64873;50.102;14.434;2023-12-20T05:05:03;98831.81;;;5.06;86.41
76128;BME280;64873;50.102;14.434;2023-12-20T05:07:28;98833.09;;;5.11;86.56
76128;BME280;64873;50.102;14.434;2023-12-20T05:09:54;98832.84;;;5.05;86.81
76128;BME280;64873;50.102;14.434;2023-12-20T05:12:19;98820.31;;;4.93;86.47
76128;BME280;64873;50.102;14.434;2023-12-20T05:14:45;98830.19;;;5.05;86.59
76128;BME280;64873;50.102;14.434;2023-12-20T05:17:11;98833.84;;;5.04;86.35
76128;BME280;64873;50.102;14.434;2023-12-20T05:19:36;98837.50;;;5.03;86.32
76128;BME280;64873;50.102;14.434;2023-12-20T05:22:02;98840.53;;;5.00;86.54
76128;BME280;64873;50.102;14.434;2023-12-20T05:24:28;98825.22;;;4.96;86.50
76128;BME280;64873;50.102;14.434;2023-12-20T05:26:54;98846.50;;;5.09;86.73
76128;BME280;64873;50.102;14.434;2023-12-20T05:29:20;98845.69;;;5.08;86.19
76128;BME280;64873;50.102;14.434;2023-12-20T05:31:45;98838.91;;;4.99;86.90
76128;BME280;64873;50.102;14.434;2023-12-20T05:34:12;98842.78;;;5.03;87.14
76128;BME280;64873;50.102;14.434;2023-12-20T05:36:37;98845.44;;;5.03;86.31
76128;BME280;64873;50.102;14.434;2023-12-20T05:39:04;98842.31;;;4.93;86.21
76128;BME280;64873;50.102;14.434;2023-12-20T05:41:30;98843.75;;;4.96;86.16
76128;BME280;64873;50.102;14.434;2023-12-20T05:43:56;98855.03;;;5.04;85.99
76128;BME280;64873;50.102;14.434;2023-12-20T05:46:23;98846.19;;;4.97;86.48
76128;BME280;64873;50.102;14.434;2023-12-20T05:48:49;98851.19;;;5.07;86.16
76128;BME280;64873;50.102;14.434;2023-12-20T05:51:14;98851.75;;;5.02;86.24
76128;BME280;64873;50.102;14.434;2023-12-20T05:53:40;98830.81;;;4.86;86.42
76128;BME280;64873;50.102;14.434;2023-12-20T05:56:05;98849.84;;;4.96;86.36
76128;BME280;64873;50.102;14.434;2023-12-20T05:58:32;98847.97;;;4.90;86.79
76128;BME280;64873;50.102;14.434;2023-12-20T06:00:57;98850.00;;;4.88;86.43
76128;BME280;64873;50.102;14.434;2023-12-20T06:03:23;98854.47;;;4.88;86.77
76128;BME280;64873;50.102;14.434;2023-12-20T06:05:48;98852.66;;;4.88;87.13
76128;BME280;64873;50.102;14.434;2023-12-20T06:08:14;98846.59;;;4.94;87.31
76128;BME280;64873;50.102;14.434;2023-12-20T06:10:39;98842.81;;;4.82;87.20
76128;BME280;64873;50.102;14.434;2023-12-20T06:13:05;98849.59;;;4.91;87.58
76128;BME280;64873;50.102;14.434;2023-12-20T06:15:32;98853.22;;;4.84;86.92
76128;BME280;64873;50.102;14.434;2023-12-20T06:17:57;98856.81;;;4.76;87.13
76128;BME280;64873;50.102;14.434;2023-12-20T06:20:23;98866.16;;;4.93;86.32
76128;BME280;64873;50.102;14.434;2023-12-20T06:22:48;98855.91;;;4.90;86.46
76128;BME280;64873;50.102;14.434;2023-12-20T06:25:14;98859.44;;;4.97;86.06
76128;BME280;64873;50.102;14.434;2023-12-20T06:27:39;98858.88;;;4.80;87.01
76128;BME280;64873;50.102;14.434;2023-12-20T06:30:07;98868.66;;;4.80;87.23
76128;BME280;64873;50.102;14.434;2023-12-20T06:32:34;98863.59;;;5.06;86.12
76128;BME280;64873;50.102;14.434;2023-12-20T06:35:00;98878.47;;;4.86;86.93
76128;BME280;64873;50.102;14.434;2023-12-20T06:37:25;98875.66;;;4.88;87.16
76128;BME280;64873;50.102;14.434;2023-12-20T06:39:50;98876.59;;;4.80;87.01
76128;BME280;64873;50.102;14.434;2023-12-20T06:42:16;98867.13;;;4.92;87.38
76128;BME280;64873;50.102;14.434;2023-12-20T06:44:41;98885.53;;;5.00;86.00
76128;BME280;64873;50.102;14.434;2023-12-20T06:47:07;98885.59;;;5.07;86.05
76128;BME280;64873;50.102;14.434;2023-12-20T06:49:33;98893.25;;;4.95;86.04
76128;BME280;64873;50.102;14.434;2023-12-20T06:51:58;98897.66;;;4.88;86.44
76128;BME280;64873;50.102;14.434;2023-12-20T06:54:23;98896.38;;;4.84;86.81
76128;BME280;64873;50.102;14.434;2023-12-20T06:56:49;98893.81;;;4.91;86.38
76128;BME280;64873;50.102;14.434;2023-12-20T06:59:14;98907.84;;;4.91;86.57
76128;BME280;64873;50.102;14.434;2023-12-20T07:01:40;98916.50;;;5.00;86.35
76128;BME280;64873;50.102;14.434;2023-12-20T07:04:06;98913.91;;;4.85;86.89
76128;BME280;64873;50.102;14.434;2023-12-20T07:06:31;98916.19;;;4.88;86.89
76128;BME280;64873;50.102;14.434;2023-12-20T07:08:56;98910.13;;;4.73;86.70
76128;BME280;64873;50.102;14.434;2023-12-20T07:11:22;98913.53;;;4.88;86.72
76128;BME280;64873;50.102;14.434;2023-12-20T07:13:48;98924.50;;;4.85;86.08
76128;BME280;64873;50.102;14.434;2023-12-20T07:16:14;98924.94;;;4.89;87.40
76128;BME280;64873;50.102;14.434;2023-12-20T07:18:40;98934.00;;;4.79;87.27
76128;BME280;64873;50.102;14.434;2023-12-20T07:21:05;98937.72;;;4.85;87.28
76128;BME280;64873;50.102;14.434;2023-12-20T07:23:33;98936.63;;;4.94;87.24
76128;BME280;64873;50.102;14.434;2023-12-20T07:25:58;98935.47;;;4.82;86.47
76128;BME280;64873;50.102;14.434;2023-12-20T07:28:24;98940.13;;;4.80;86.85
76128;BME280;64873;50.102;14.434;2023-12-20T07:30:50;98955.38;;;4.78;87.09
76128;BME280;64873;50.102;14.434;2023-12-20T07:33:15;98932.31;;;4.72;87.50
76128;BME280;64873;50.102;14.434;2023-12-20T07:35:41;98945.59;;;4.78;86.64
76128;BME280;64873;50.102;14.434;2023-12-20T07:38:06;98930.78;;;4.63;86.89
76128;BME280;64873;50.102;14.434;2023-12-20T07:40:32;98954.09;;;4.74;86.87
76128;BME280;64873;50.102;14.434;2023-12-20T07:42:57;98954.50;;;4.71;86.24
76128;BME280;64873;50.102;14.434;2023-12-20T07:45:23;98972.63;;;4.74;86.66
76128;BME280;64873;50.102;14.434;2023-12-20T07:47:49;98949.34;;;4.84;86.52
76128;BME280;64873;50.102;14.434;2023-12-20T07:50:15;98963.84;;;4.88;85.65
76128;BME280;64873;50.102;14.434;2023-12-20T07:52:40;98967.88;;;4.84;85.49
76128;BME280;64873;50.102;14.434;2023-12-20T07:55:06;98980.75;;;4.87;85.89
76128;BME280;64873;50.102;14.434;2023-12-20T07:57:32;98969.75;;;4.90;86.04
76128;BME280;64873;50.102;14.434;2023-12-20T07:59:57;98969.53;;;5.06;84.87
76128;BME280;64873;50.102;14.434;2023-12-20T08:02:23;98969.31;;;5.08;84.84
76128;BME280;64873;50.102;14.434;2023-12-20T08:04:48;98953.25;;;4.88;84.26
76128;BME280;64873;50.102;14.434;2023-12-20T08:07:13;98952.81;;;5.06;84.72
76128;BME280;64873;50.102;14.434;2023-12-20T08:09:39;98964.59;;;5.03;84.29
76128;BME280;64873;50.102;14.434;2023-12-20T08:12:05;98949.16;;;5.07;83.77
76128;BME280;64873;50.102;14.434;2023-12-20T08:14:30;98956.28;;;5.06;83.71
76128;BME280;64873;50.102;14.434;2023-12-20T08:16:56;98961.72;;;4.98;83.88
76128;BME280;64873;50.102;14.434;2023-12-20T08:19:22;98953.13;;;4.96;84.21
76128;BME280;64873;50.102;14.434;2023-12-20T08:21:47;98971.16;;;5.07;84.61
76128;BME280;64873;50.102;14.434;2023-12-20T08:24:13;98966.50;;;5.31;83.79
76128;BME280;64873;50.102;14.434;2023-12-20T08:26:38;98962.97;;;5.24;83.80
76128;BME280;64873;50.102;14.434;2023-12-20T08:29:04;98978.16;;;5.15;83.46
76128;BME280;64873;50.102;14.434;2023-12-20T08:31:29;98961.44;;;5.15;83.09
76128;BME280;64873;50.102;14.434;2023-12-20T08:33:54;98969.53;;;5.06;82.73
76128;BME280;64873;50.102;14.434;2023-12-20T08:36:21;98973.06;;;5.35;83.25
76128;BME280;64873;50.102;14.434;2023-12-20T08:38:47;98972.28;;;5.20;81.97
76128;BME280;64873;50.102;14.434;2023-12-20T08:41:13;98969.97;;;5.10;82.16
76128;BME280;64873;50.102;14.434;2023-12-20T08:43:38;98981.63;;;5.16;82.44
76128;BME280;64873;50.102;14.434;2023-12-20T08:46:08;98974.06;;;5.13;82.80
76128;BME280;64873;50.102;14.434;2023-12-20T08:48:35;98979.88;;;5.23;82.92
76128;BME280;64873;50.102;14.434;2023-12-20T08:51:00;98974.44;;;5.09;83.13
76128;BME280;64873;50.102;14.434;2023-12-20T08:53:26;98976.50;;;5.14;82.53
76128;BME280;64873;50.102;14.434;2023-12-20T08:55:52;98956.16;;;5.15;82.28
76128;BME280;64873;50.102;14.434;2023-12-20T08:58:17;98946.50;;;5.07;82.77
76128;BME280;64873;50.102;14.434;2023-12-20T09:00:42;98959.63;;;5.15;82.31
76128;BME280;64873;50.102;14.434;2023-12-20T09:03:08;98972.44;;;5.12;82.67
76128;BME280;64873;50.102;14.434;2023-12-20T09:05:33;98984.09;;;5.17;82.33
76128;BME280;64873;50.102;14.434;2023-12-20T09:07:59;98969.59;;;5.13;82.13
76128;BME280;64873;50.102;14.434;2023-12-20T09:10:24;98969.53;;;5.06;82.13
76128;BME280;64873;50.102;14.434;2023-12-20T09:12:53;98961.38;;;5.08;82.08
76128;BME280;64873;50.102;14.434;2023-12-20T09:15:26;98963.59;;;5.04;81.60
76128;BME280;64873;50.102;14.434;2023-12-20T09:17:52;98964.22;;;5.06;81.96
76128;BME280;64873;50.102;14.434;2023-12-20T09:20:18;98979.22;;;5.21;82.76
76128;BME280;64873;50.102;14.434;2023-12-20T09:22:43;98968.00;;;5.19;82.12
76128;BME280;64873;50.102;14.434;2023-12-20T09:25:10;98980.13;;;5.06;82.00
76128;BME280;64873;50.102;14.434;2023-12-20T09:27:36;98971.16;;;5.07;82.31
76128;BME280;64873;50.102;14.434;2023-12-20T09:30:02;98989.56;;;5.16;82.22
76128;BME280;64873;50.102;14.434;2023-12-20T09:32:28;98985.78;;;5.46;81.75
76128;BME280;64873;50.102;14.434;2023-12-20T09:34:55;98974.22;;;5.54;80.92
76128;BME280;64873;50.102;14.434;2023-12-20T09:37:20;98987.38;;;5.41;81.17
76128;BME280;64873;50.102;14.434;2023-12-20T09:39:45;98990.31;;;5.52;81.27
76128;BME280;64873;50.102;14.434;2023-12-20T09:42:12;98967.72;;;5.56;80.17
76128;BME280;64873;50.102;14.434;2023-12-20T09:44:41;98982.84;;;5.62;81.03
76128;BME280;64873;50.102;14.434;2023-12-20T09:47:07;98976.81;;;5.47;80.70
76128;BME280;64873;50.102;14.434;2023-12-20T09:49:33;98973.88;;;5.35;80.73
76128;BME280;64873;50.102;14.434;2023-12-20T09:52:00;98966.88;;;5.28;81.05
76128;BME280;64873;50.102;14.434;2023-12-20T09:54:28;98974.91;;;5.62;81.57
76128;BME280;64873;50.102;14.434;2023-12-20T09:56:53;98970.34;;;5.56;80.18
76128;BME280;64873;50.102;14.434;2023-12-20T09:59:19;98994.22;;;5.56;80.18
76128;BME280;64873;50.102;14.434;2023-12-20T10:01:45;98974.78;;;5.49;80.50
76128;BME280;64873;50.102;14.434;2023-12-20T10:04:12;98966.44;;;5.46;81.24
76128;BME280;64873;50.102;14.434;2023-12-20T10:06:39;98975.88;;;5.55;81.60
76128;BME280;64873;50.102;14.434;2023-12-20T10:09:05;98969.13;;;5.52;80.30
76128;BME280;64873;50.102;14.434;2023-12-20T10:11:31;98962.94;;;5.45;80.63
76128;BME280;64873;50.102;14.434;2023-12-20T10:14:00;98949.06;;;5.43;80.81
76128;BME280;64873;50.102;14.434;2023-12-20T10:16:29;98944.16;;;5.40;80.48
76128;BME280;64873;50.102;14.434;2023-12-20T10:18:55;98956.91;;;5.51;80.21
76128;BME280;64873;50.102;14.434;2023-12-20T10:21:22;98956.84;;;5.73;78.83
76128;BME280;64873;50.102;14.434;2023-12-20T10:23:48;98951.63;;;5.58;79.93
76128;BME280;64873;50.102;14.434;2023-12-20T10:26:24;98953.31;;;5.66;79.96
76128;BME280;64873;50.102;14.434;2023-12-20T10:28:54;98946.03;;;5.74;79.67
76128;BME280;64873;50.102;14.434;2023-12-20T10:31:33;98942.16;;;5.70;79.35
76128;BME280;64873;50.102;14.434;2023-12-20T10:34:00;98950.75;;;5.79;79.50
76128;BME280;64873;50.102;14.434;2023-12-20T10:36:28;98942.72;;;5.66;79.52
76128;BME280;64873;50.102;14.434;2023-12-20T10:38:55;98920.53;;;5.45;80.01
76128;BME280;64873;50.102;14.434;2023-12-20T10:41:30;98937.31;;;5.52;80.22
76128;BME280;64873;50.102;14.434;2023-12-20T10:44:00;98936.50;;;5.52;80.23
76128;BME280;64873;50.102;14.434;2023-12-20T10:46:29;98930.00;;;5.54;79.54
76128;BME280;64873;50.102;14.434;2023-12-20T10:48:58;98918.78;;;5.52;80.14
76128;BME280;64873;50.102;14.434;2023-12-20T10:51:25;98917.81;;;5.60;79.46
76128;BME280;64873;50.102;14.434;2023-12-20T10:53:55;98926.69;;;5.80;79.33
76128;BME280;64873;50.102;14.434;2023-12-20T10:56:21;98897.91;;;5.71;79.50
76128;BME280;64873;50.102;14.434;2023-12-20T10:58:48;98908.19;;;5.87;79.58
76128;BME280;64873;50.102;14.434;2023-12-20T11:01:16;98916.75;;;5.89;78.88
76128;BME280;64873;50.102;14.434;2023-12-20T11:03:52;98923.34;;;5.93;78.43
76128;BME280;64873;50.102;14.434;2023-12-20T11:06:45;98918.56;;;6.17;77.32
76128;BME280;64873;50.102;14.434;2023-12-20T11:09:33;98919.88;;;6.34;76.89
76128;BME280;64873;50.102;14.434;2023-12-20T11:12:17;98922.47;;;6.27;76.99
76128;BME280;64873;50.102;14.434;2023-12-20T11:14:48;98918.69;;;6.43;76.82
76128;BME280;64873;50.102;14.434;2023-12-20T11:17:15;98907.22;;;6.36;76.81
76128;BME280;64873;50.102;14.434;2023-12-20T11:22:22;98908.53;;;6.66;75.89
76128;BME280;64873;50.102;14.434;2023-12-20T11:24:48;98897.91;;;6.66;74.86
76128;BME280;64873;50.102;14.434;2023-12-20T11:27:14;98906.88;;;6.59;74.54
76128;BME280;64873;50.102;14.434;2023-12-20T11:29:41;98895.44;;;6.45;74.63
76128;BME280;64873;50.102;14.434;2023-12-20T11:34:59;98883.13;;;6.31;75.31
76128;BME280;64873;50.102;14.434;2023-12-20T11:37:38;98886.84;;;6.50;76.28
76128;BME280;64873;50.102;14.434;2023-12-20T11:40:07;98888.88;;;6.41;75.04
76128;BME280;64873;50.102;14.434;2023-12-20T11:43:03;98888.22;;;6.39;74.74
76128;BME280;64873;50.102;14.434;2023-12-20T11:45:30;98902.38;;;6.46;74.11
76128;BME280;64873;50.102;14.434;2023-12-20T11:47:57;98886.00;;;6.43;74.08
76128;BME280;64873;50.102;14.434;2023-12-20T11:50:24;98877.84;;;6.44;73.73
76128;BME280;64873;50.102;14.434;2023-12-20T11:52:50;98879.50;;;6.45;73.08
76128;BME280;64873;50.102;14.434;2023-12-20T11:55:17;98875.38;;;6.36;72.86
76128;BME280;64873;50.102;14.434;2023-12-20T11:57:43;98874.94;;;6.26;73.78
76128;BME280;64873;50.102;14.434;2023-12-20T12:00:09;98860.44;;;6.22;73.72
76128;BME280;64873;50.102;14.434;2023-12-20T12:02:35;98863.84;;;6.15;74.17
76128;BME280;64873;50.102;14.434;2023-12-20T12:05:00;98855.72;;;6.10;73.57
76128;BME280;64873;50.102;14.434;2023-12-20T12:07:26;98854.84;;;6.03;73.41
76128;BME280;64873;50.102;14.434;2023-12-20T12:09:51;98867.50;;;6.01;73.28
76128;BME280;64873;50.102;14.434;2023-12-20T12:12:17;98876.84;;;5.97;74.34
76128;BME280;64873;50.102;14.434;2023-12-20T12:14:45;98874.03;;;6.05;73.87
76128;BME280;64873;50.102;14.434;2023-12-20T12:17:14;98867.28;;;6.03;74.04
76128;BME280;64873;50.102;14.434;2023-12-20T12:19:41;98863.03;;;6.08;74.50
76128;BME280;64873;50.102;14.434;2023-12-20T12:22:14;98863.66;;;6.10;73.79
76128;BME280;64873;50.102;14.434;2023-12-20T12:24:41;98852.88;;;6.19;72.99
76128;BME280;64873;50.102;14.434;2023-12-20T12:27:08;98848.16;;;6.21;72.84
76128;BME280;64873;50.102;14.434;2023-12-20T12:29:34;98849.22;;;6.26;72.46
76128;BME280;64873;50.102;14.434;2023-12-20T12:32:00;98837.78;;;6.32;71.48
76128;BME280;64873;50.102;14.434;2023-12-20T12:34:29;98844.59;;;6.48;70.70
76128;BME280;64873;50.102;14.434;2023-12-20T12:36:55;98834.16;;;6.40;70.71
76128;BME280;64873;50.102;14.434;2023-12-20T12:39:23;98834.38;;;6.45;69.93
76128;BME280;64873;50.102;14.434;2023-12-20T12:41:49;98835.00;;;6.54;69.59
76128;BME280;64873;50.102;14.434;2023-12-20T12:44:14;98840.53;;;6.59;69.44
76128;BME280;64873;50.102;14.434;2023-12-20T12:46:40;98825.41;;;6.46;68.05
76128;BME280;64873;50.102;14.434;2023-12-20T12:49:05;98829.69;;;6.47;68.51
76128;BME280;64873;50.102;14.434;2023-12-20T12:51:31;98833.56;;;6.51;68.71
76128;BME280;64873;50.102;14.434;2023-12-20T12:53:56;98819.50;;;6.57;67.60
76128;BME280;64873;50.102;14.434;2023-12-20T12:56:22;98827.66;;;6.62;67.89
76128;BME280;64873;50.102;14.434;2023-12-20T12:58:48;98826.88;;;6.75;66.19
76128;BME280;64873;50.102;14.434;2023-12-20T13:01:14;98805.19;;;6.78;65.51